Emanuel County Airport


Codes: KSBO/
Name: Emanuel County Airport
City: Swainsboro
Country: United States
Elevation: 327 ft.

Photos at Emanuel County Airport


   Photos courtesy of SpottingLog. You can add your own sightings and photos by signing up for a free trial today.



No photos found.

Weather at Emanuel County Airport


Time (UTC)DescriptionTempratureWindCloud coverageVisibilityPressureHumidity
23-May-2024 21:00Broken Clouds30°C9 mph, S74%10000m1015hPa51%
24-May-2024 00:00Overcast Clouds27°C7 mph, S86%10000m1014hPa64%
24-May-2024 03:00Scattered Clouds24°C7 mph, S41%10000m1014hPa77%
24-May-2024 06:00Scattered Clouds22°C9 mph, S26%10000m1013hPa83%
24-May-2024 09:00Few Clouds21°C7 mph, SW22%10000m1013hPa83%
24-May-2024 12:00Light Rain23°C4 mph, SW24%10000m1014hPa79%
24-May-2024 15:00Light Rain28°C4 mph, SW71%10000m1013hPa65%
24-May-2024 18:00Light Rain31°C7 mph, W59%10000m1012hPa51%
24-May-2024 21:00Light Rain31°C7 mph, NW69%10000m1011hPa50%
25-May-2024 00:00Light Rain25°C7 mph, NE83%10000m1011hPa79%
25-May-2024 03:00Light Rain22°C7 mph, E7%10000m1012hPa88%
25-May-2024 06:00Light Rain21°C4 mph, SE9%10000m1011hPa96%
25-May-2024 09:00Light Rain21°C2 mph, SW68%10000m1012hPa95%
25-May-2024 12:00Broken Clouds23°C4 mph, W53%10000m1013hPa86%
25-May-2024 15:00Clear Sky29°C7 mph, NW2%10000m1013hPa60%
25-May-2024 18:00Scattered Clouds32°C7 mph, NW27%10000m1012hPa45%
25-May-2024 21:00Overcast Clouds33°C7 mph, NW86%10000m1010hPa40%
26-May-2024 00:00Overcast Clouds28°C9 mph, SW86%10000m1011hPa62%
26-May-2024 03:00Scattered Clouds25°C7 mph, W48%10000m1013hPa75%
26-May-2024 06:00Few Clouds24°C4 mph, NW19%10000m1012hPa82%
26-May-2024 09:00Clear Sky22°C7 mph, NW0%10000m1012hPa81%
26-May-2024 12:00Clear Sky24°C4 mph, W1%10000m1014hPa73%
26-May-2024 15:00Clear Sky30°C4 mph, SW5%10000m1014hPa54%
26-May-2024 18:00Few Clouds34°C9 mph, W21%10000m1013hPa43%
26-May-2024 21:00Overcast Clouds33°C11 mph, SW98%10000m1011hPa42%
27-May-2024 00:00Broken Clouds29°C9 mph, W84%10000m1011hPa64%
27-May-2024 03:00Overcast Clouds26°C7 mph, SW100%10000m1012hPa71%
27-May-2024 06:00Overcast Clouds25°C7 mph, SW96%10000m1012hPa72%
27-May-2024 09:00Clear Sky23°C4 mph, SW1%10000m1012hPa81%
27-May-2024 12:00Scattered Clouds23°C7 mph, W39%10000m1015hPa79%
27-May-2024 15:00Overcast Clouds28°C9 mph, SW100%10000m1015hPa57%
27-May-2024 18:00Overcast Clouds32°C11 mph, SW96%10000m1013hPa40%
27-May-2024 21:00Overcast Clouds33°C13 mph, SW97%10000m1012hPa41%
28-May-2024 00:00Overcast Clouds28°C9 mph, SW86%10000m1012hPa59%
28-May-2024 03:00Light Rain26°C7 mph, SW65%10000m1012hPa66%
28-May-2024 06:00Light Rain24°C7 mph, SW48%10000m1011hPa76%
28-May-2024 09:00Light Rain22°C7 mph, W84%10000m1013hPa87%
28-May-2024 12:00Light Rain23°C9 mph, SW92%10000m1014hPa90%
28-May-2024 15:00Light Rain24°C7 mph, W100%10000m1014hPa85%
28-May-2024 18:00Light Rain32°C11 mph, W77%10000m1012hPa41%